CDT,Max TemperatureF,Mean TemperatureF,Min TemperatureF,Max Dew PointF,MeanDew PointF,Min DewpointF,Max Humidity, Mean Humidity, Min Humidity, Max Sea Level PressureIn, Mean Sea Level PressureIn, Min Sea Level PressureIn, Max VisibilityMiles, Mean VisibilityMiles, Min VisibilityMiles, Max Wind SpeedMPH, Mean Wind SpeedMPH, Max Gust SpeedMPH,PrecipitationIn, CloudCover, Events, WindDirDegrees
2012-10-1,70,55,39,50,44,39,92,65,37,29.95,29.89,29.83,10,10,10,12,5,17,0.00,0,,67
2012-10-2,68,57,46,49,41,33,100,64,27,29.98,29.94,29.90,10,9,6,12,3,15,0.00,0,,28
2012-10-3,73,57,40,50,44,39,100,69,38,30.02,29.97,29.92,10,6,0,12,4,15,0.00,1,Fog,119
2012-10-4,62,52,41,50,39,28,93,66,39,30.04,29.94,29.87,10,10,9,28,13,38,0.00,1,,219
2012-10-5,48,43,37,28,26,24,64,53,42,30.04,30.02,29.98,10,10,10,26,19,37,0.00,6,,274
2012-10-6,45,39,33,30,27,22,89,66,43,30.22,30.12,29.97,10,10,10,20,9,28,T,6,Rain,307
2012-10-7,50,41,31,25,21,16,64,45,26,30.19,30.11,30.02,10,10,10,21,8,31,0.00,3,,270
2012-10-8,58,46,34,34,29,22,59,50,40,30.01,29.85,29.73,10,10,10,28,15,37,T,5,,189
2012-10-9,54,46,38,45,40,32,100,73,45,29.84,29.75,29.69,10,8,2,24,10,30,0.28,7,Rain,241
2012-10-10,47,40,32,30,26,20,78,58,38,30.07,29.99,29.83,10,9,2,24,12,32,T,4,Snow,281
2012-10-11,52,42,31,34,26,17,70,48,26,30.35,30.06,29.86,10,10,10,22,11,29,T,4,,297
2012-10-12,49,37,24,27,22,19,88,60,31,30.49,30.38,30.22,10,10,10,14,6,17,0.00,0,,205
2012-10-13,49,44,38,48,43,28,100,82,64,30.19,29.86,29.71,10,4,1,13,5,17,0.79,8,Rain,142
2012-10-14,49,46,43,48,43,37,100,91,82,29.79,29.68,29.59,10,6,2,17,9,24,1.11,8,Rain,4
2012-10-15,57,48,38,38,35,32,86,63,40,29.94,29.88,29.78,10,10,10,13,5,18,0.00,3,,304
2012-10-16,63,52,41,45,42,37,83,68,52,29.88,29.65,29.46,10,10,10,20,8,24,T,5,,132
2012-10-17,70,57,44,55,49,43,100,75,49,29.45,29.33,29.23,10,6,0,22,7,29,0.53,5,Fog-Rain,143
2012-10-18,51,47,42,50,43,39,96,84,71,29.43,29.26,29.15,10,8,2,14,7,16,0.42,8,Rain,194
2012-10-19,49,45,41,41,40,39,89,80,71,29.68,29.52,29.41,10,9,3,10,6,14,0.01,7,Rain,47
2012-10-20,53,44,35,43,39,36,100,82,64,29.89,29.80,29.67,10,7,0,10,4,13,0.00,5,Fog,296
2012-10-21,61,46,30,43,38,31,100,76,51,29.99,29.94,29.87,10,6,1,16,5,18,0.00,0,,113
2012-10-22,63,53,43,48,46,42,93,75,56,30.00,29.97,29.93,10,7,1,18,6,23,0.00,5,,80
2012-10-23,59,55,50,59,52,46,100,89,77,29.96,29.88,29.83,10,5,0,15,8,22,0.01,8,Fog-Rain,116
2012-10-24,69,64,59,64,62,59,100,91,81,29.88,29.80,29.68,10,3,0,16,6,21,T,8,Fog,128
2012-10-25,67,51,34,64,52,29,100,85,70,30.04,29.63,29.51,10,6,1,25,13,36,2.34,8,Rain,256
2012-10-26,40,36,32,28,25,20,82,67,52,30.36,30.28,30.09,10,10,10,22,11,26,0.00,5,,279
2012-10-27,43,36,28,25,20,14,78,56,33,30.39,30.35,30.32,10,10,10,15,4,18,0.00,2,,306
2012-10-28,46,35,23,24,21,17,88,61,33,30.42,30.38,30.35,10,10,9,6,1,8,0.00,0,,91
2012-10-29,49,36,23,27,22,20,88,61,34,30.42,30.35,30.24,10,10,10,10,4,15,0.00,0,,350
2012-10-30,44,38,31,26,22,17,78,57,36,30.23,30.06,29.95,10,10,10,21,12,33,0.00,0,,349
2012-10-31,47,38,29,26,19,11,78,53,28,29.94,29.90,29.86,10,10,10,17,9,22,0.00,1,,321